createdAt,value
2023-05-24T00:08:39.016Z,10.6
2023-05-24T00:18:40.470Z,10.4
2023-05-24T00:28:41.957Z,10.8
2023-05-24T00:38:43.318Z,10.3
2023-05-24T00:48:44.188Z,10
2023-05-24T00:58:45.609Z,9.7
2023-05-24T01:08:46.857Z,10
2023-05-24T01:18:48.306Z,9.6
2023-05-24T01:28:49.706Z,10.1
2023-05-24T01:38:51.132Z,9.8
2023-05-24T01:48:52.291Z,11
2023-05-24T01:58:53.858Z,10
2023-05-24T02:08:55.369Z,9.6
2023-05-24T02:18:56.787Z,9.9
2023-05-24T02:28:58.189Z,9.6
2023-05-24T02:38:59.667Z,9.3
2023-05-24T02:49:01.023Z,9.7
2023-05-24T02:59:02.272Z,9.7
2023-05-24T03:08:04.199Z,9.3
2023-05-24T03:18:05.503Z,9.6
2023-05-24T03:28:06.585Z,10
2023-05-24T03:38:17.988Z,9.3
2023-05-24T03:48:35.317Z,1.7
2023-05-24T03:58:53.828Z,1.8
2023-05-24T04:09:13.812Z,1.9
2023-05-24T04:19:34.033Z,1.9
2023-05-24T04:29:54.570Z,1.3
2023-05-24T04:40:14.980Z,3.1
2023-05-24T04:50:35.593Z,3.3
2023-05-24T05:00:56.385Z,2.6
2023-05-24T05:11:15.371Z,14.7
2023-05-24T05:21:34.595Z,4.2
2023-05-24T05:31:53.384Z,3.9
2023-05-24T05:42:10.337Z,17.9
2023-05-24T05:52:26.885Z,17.5
2023-05-24T06:02:43.441Z,18.4
2023-05-24T06:13:01.258Z,6.4
2023-05-24T06:23:18.504Z,6.8
2023-05-24T06:33:37.856Z,17.8
2023-05-24T06:43:56.053Z,16.1
2023-05-24T06:54:14.506Z,9.6
2023-05-24T07:04:33.433Z,16.8
2023-05-24T07:14:51.946Z,18.3
2023-05-24T07:25:10.162Z,19.1
2023-05-24T07:35:28.152Z,20.6
2023-05-24T07:45:46.428Z,22.9
2023-05-24T07:56:03.883Z,26.1
2023-05-24T08:06:21.906Z,17.7
2023-05-24T08:16:40.242Z,18.5
2023-05-24T08:26:57.856Z,32.1
2023-05-24T08:37:16.234Z,33.7
2023-05-24T08:47:33.901Z,22.6
2023-05-24T08:57:51.669Z,33.3
2023-05-24T09:08:19.055Z,19.4
2023-05-24T09:18:36.438Z,18.2
2023-05-24T09:28:55.399Z,18.1
2023-05-24T09:39:13.989Z,17.9
2023-05-24T09:49:31.460Z,15.9
2023-05-24T09:59:51.396Z,14.9
2023-05-24T10:10:11.360Z,15.3
2023-05-24T10:20:31.311Z,14.7
2023-05-24T10:30:51.269Z,15.2
2023-05-24T10:41:10.941Z,13.3
2023-05-24T10:51:30.840Z,14.8
2023-05-24T11:01:49.797Z,17.9
2023-05-24T11:12:06.052Z,21.4
2023-05-24T11:22:21.939Z,32.8
2023-05-24T11:32:37.413Z,22.7
2023-05-24T11:42:52.803Z,22.9
2023-05-24T11:53:08.269Z,24.3
2023-05-24T12:03:24.250Z,22.8
2023-05-24T12:13:39.603Z,23.7
2023-05-24T12:23:55.195Z,22.8
2023-05-24T12:34:10.970Z,22.1
2023-05-24T12:44:27.011Z,22.3
2023-05-24T12:54:42.694Z,22.2
2023-05-24T13:04:58.364Z,23
2023-05-24T13:15:14.833Z,20.6
2023-05-24T13:25:29.772Z,23.5
2023-05-24T13:35:41.485Z,24.8
2023-05-24T13:45:49.110Z,23.3
2023-05-24T13:55:49.850Z,25.2
2023-05-24T14:05:49.880Z,20.4
2023-05-24T14:15:49.970Z,23.4
2023-05-24T14:25:50.626Z,18.6
2023-05-24T14:35:50.483Z,22.1
2023-05-24T14:45:50.273Z,22.1
2023-05-24T14:55:49.602Z,23.1
2023-05-24T15:08:03.959Z,23.3
2023-05-24T15:18:03.758Z,23.3
2023-05-24T15:28:02.558Z,23.4
2023-05-24T15:38:01.824Z,22.2
2023-05-24T15:48:01.191Z,22.9
2023-05-24T15:58:01.159Z,19.3
2023-05-24T16:08:02.654Z,22.2
2023-05-24T16:18:04.528Z,21.8
2023-05-24T16:28:06.250Z,18.3
2023-05-24T16:38:07.567Z,17.9
2023-05-24T16:48:09.262Z,18.1
2023-05-24T16:58:10.834Z,20.7
2023-05-24T17:08:10.842Z,17.8
2023-05-24T17:18:11.080Z,17.2
2023-05-24T17:28:11.461Z,17.5
2023-05-24T17:38:10.784Z,20.6
2023-05-24T17:48:10.658Z,20.2
2023-05-24T17:58:09.919Z,20.1
2023-05-24T18:08:09.774Z,19.8
2023-05-24T18:18:09.340Z,19.9
2023-05-24T18:28:08.942Z,19.4
2023-05-24T18:38:08.439Z,19.8
2023-05-24T18:48:08.054Z,19.9
2023-05-24T18:58:07.674Z,19.5
2023-05-24T19:08:06.366Z,19.1
2023-05-24T19:18:06.840Z,19.3
2023-05-24T19:28:06.705Z,19.3
2023-05-24T19:38:05.606Z,19.3
2023-05-24T19:48:04.911Z,18.9
2023-05-24T19:58:04.354Z,18.8
2023-05-24T20:08:03.811Z,18
2023-05-24T20:18:03.548Z,18.1
2023-05-24T20:28:02.897Z,18.3
2023-05-24T20:38:01.967Z,18.3
2023-05-24T20:48:01.782Z,17.9
2023-05-24T20:58:02.210Z,17.6
2023-05-24T21:08:02.614Z,13.3
2023-05-24T21:18:02.576Z,16.9
2023-05-24T21:28:01.850Z,13.4
2023-05-24T21:38:01.600Z,13.1
2023-05-24T21:48:00.751Z,16.8
2023-05-24T21:58:00.234Z,16.5
2023-05-24T22:08:02.037Z,13.4
2023-05-24T22:18:04.307Z,12.9
2023-05-24T22:28:08.080Z,12.8
2023-05-24T22:38:08.461Z,12.8
2023-05-24T22:48:10.325Z,12.2
2023-05-24T22:58:12.426Z,11.9
2023-05-24T23:08:13.334Z,12.2
2023-05-24T23:18:13.693Z,15.6
2023-05-24T23:28:13.212Z,16
2023-05-24T23:38:13.114Z,12.4
2023-05-24T23:48:13.874Z,11.8
2023-05-24T23:58:14.687Z,11.9
